Time;durP1;ratioP1;P1;durP2;ratioP2;P2;SDS_P1;SDS_P2;PMS_P1;PMS_P2;Temp;Humidity;BMP_temperature;BMP_pressure;BME280_temperature;BME280_humidity;BME280_pressure;Samples;Min_cycle;Max_cycle;Signal;HPM_P1;HPM_P2
2023/08/02 00:46:35;;;;;;;9.10;6.23;;;17.50;99.90;;;;;;5830759;24;20178;-85
2023/08/02 00:50:54;;;;;;;7.10;6.13;;;17.50;99.90;;;;;;5809137;24;20235;-84
2023/08/02 01:16:42;;;;;;;6.80;5.80;;;17.40;99.90;;;;;;5733159;24;20319;-84
2023/08/02 02:22:43;;;;;;;7.90;6.33;;;17.10;99.90;;;;;;5673732;24;20227;-84
2023/08/02 02:47:49;;;;;;;7.23;6.23;;;16.60;99.90;;;;;;5624536;24;20691;-83
2023/08/02 03:13:21;;;;;;;6.97;6.27;;;16.30;99.90;;;;;;5687084;24;20401;-87
2023/08/02 04:29:28;;;;;;;7.00;6.07;;;17.00;99.90;;;;;;5755981;24;20239;-85
2023/08/02 04:54:48;;;;;;;5.93;5.17;;;17.60;99.90;;;;;;6068969;23;20412;-85
2023/08/02 05:15:15;;;;;;;5.50;5.00;;;18.30;99.90;;;;;;5898743;23;20294;-84
2023/08/02 05:50:47;;;;;;;4.53;4.13;;;19.70;99.90;;;;;;5702825;24;20332;-84
2023/08/02 06:16:08;;;;;;;5.33;3.90;;;19.90;99.90;;;;;;5852261;23;20195;-88
2023/08/02 06:51:13;;;;;;;13.73;4.53;;;20.20;97.90;;;;;;5560441;24;20521;-86
2023/08/02 07:57:35;;;;;;;5.82;3.45;;;21.50;89.40;;;;;;5921715;23;20168;-85
2023/08/02 08:38:14;;;;;;;4.07;3.45;;;21.80;86.30;;;;;;5867643;23;20177;-84
2023/08/02 09:33:49;;;;;;;4.80;2.53;;;22.60;80.40;;;;;;5582420;24;20586;-88
2023/08/02 09:54:12;;;;;;;2.40;1.95;;;22.70;77.90;;;;;;5644427;24;20230;-87
2023/08/02 10:19:37;;;;;;;2.65;2.20;;;23.60;66.50;;;;;;5860052;24;20191;-87
2023/08/02 10:55:13;;;;;;;2.63;1.80;;;23.80;63.80;;;;;;6029706;23;20177;-83
2023/08/02 11:25:28;;;;;;;1.90;1.48;;;24.20;59.70;;;;;;5911588;23;20176;-85
2023/08/02 11:55:29;;;;;;;1.73;1.63;;;24.80;59.20;;;;;;5758755;24;20633;-86
2023/08/02 12:31:04;;;;;;;3.45;2.38;;;25.40;56.20;;;;;;5724015;24;20579;-83
2023/08/02 13:07:03;;;;;;;3.38;2.00;;;25.60;55.20;;;;;;5826904;23;20528;-84
2023/08/02 13:37:38;;;;;;;3.38;2.10;;;26.10;55.10;;;;;;5719950;24;20700;-83
2023/08/02 14:02:45;;;;;;;7.53;2.78;;;25.40;54.70;;;;;;5918984;23;20172;-85
2023/08/02 14:28:00;;;;;;;3.25;2.30;;;26.00;55.90;;;;;;5775070;23;20614;-82
2023/08/02 14:48:43;;;;;;;2.67;2.08;;;29.20;51.40;;;;;;5651513;24;20699;-83
2023/08/02 15:54:36;;;;;;;4.03;2.17;;;25.10;53.50;;;;;;5618945;24;20262;-85
2023/08/02 16:29:59;;;;;;;1.90;1.80;;;24.90;54.80;;;;;;5680659;24;20539;-84
2023/08/02 16:54:56;;;;;;;2.35;2.05;;;25.00;55.30;;;;;;5711293;24;21210;-84
2023/08/02 17:25:47;;;;;;;2.70;2.50;;;24.00;58.30;;;;;;5648310;24;20485;-84
2023/08/02 17:51:00;;;;;;;3.25;2.72;;;23.20;67.20;;;;;;5645980;24;20373;-83
2023/08/02 18:11:21;;;;;;;4.28;3.20;;;22.60;76.70;;;;;;5668770;24;20248;-84
2023/08/02 18:36:24;;;;;;;7.27;5.03;;;20.70;91.70;;;;;;5552902;24;21103;-84
2023/08/02 19:02:13;;;;;;;7.47;4.53;;;19.30;99.90;;;;;;5671483;24;20213;-84
2023/08/02 19:32:20;;;;;;;5.87;4.97;;;18.40;99.90;;;;;;5704148;24;20973;-84
2023/08/02 19:52:54;;;;;;;7.03;4.90;;;18.40;99.90;;;;;;5802616;24;20167;-83
2023/08/02 20:22:45;;;;;;;5.13;4.60;;;18.30;99.90;;;;;;5856093;23;21343;-85
2023/08/02 21:14:12;;;;;;;6.00;5.50;;;18.80;99.90;;;;;;5888374;23;20303;-84
2023/08/02 21:18:32;;;;;;;7.37;5.23;;;18.90;99.90;;;;;;5728312;24;20824;-82
2023/08/02 21:44:36;;;;;;;9.27;5.63;;;18.90;99.90;;;;;;5906087;23;20168;-84
2023/08/02 22:09:44;;;;;;;7.07;5.63;;;19.00;99.90;;;;;;5743115;24;20195;-84
2023/08/02 22:55:33;;;;;;;5.13;4.63;;;19.10;99.90;;;;;;5807029;23;20753;-82
2023/08/02 23:26:03;;;;;;;7.00;4.43;;;19.10;99.90;;;;;;5797580;24;20163;-83
